createdAt,value
2019-04-09T00:00:14.666Z,71.20
2019-04-09T00:03:13.360Z,70.30
2019-04-09T00:05:45.144Z,71.30
2019-04-09T00:08:15.732Z,70.30
2019-04-09T00:10:46.765Z,70.40
2019-04-09T00:13:19.712Z,70.40
2019-04-09T00:15:50.542Z,70.40
2019-04-09T00:18:22.197Z,70.50
2019-04-09T00:20:53.598Z,70.60
2019-04-09T00:23:25.222Z,70.50
2019-04-09T00:25:55.824Z,70.50
2019-04-09T00:28:27.046Z,70.70
2019-04-09T00:30:58.071Z,70.60
2019-04-09T00:33:28.782Z,70.70
2019-04-09T00:35:59.433Z,70.60
2019-04-09T00:38:30.010Z,70.60
2019-04-09T00:41:00.597Z,70.70
2019-04-09T00:43:31.346Z,70.90
2019-04-09T00:46:02.934Z,72.10
2019-04-09T00:48:33.523Z,72.20
2019-04-09T00:51:06.280Z,72.40
2019-04-09T00:53:36.835Z,72.40
2019-04-09T00:56:09.047Z,72.40
2019-04-09T00:58:40.847Z,72.50
2019-04-09T01:01:14.074Z,72.50
2019-04-09T01:03:44.599Z,72.70
2019-04-09T01:06:15.088Z,72.70
2019-04-09T01:08:45.615Z,72.80
2019-04-09T01:11:16.105Z,72.90
2019-04-09T01:13:46.904Z,72.90
2019-04-09T01:16:18.588Z,73.10
2019-04-09T01:18:49.840Z,73.10
2019-04-09T01:21:21.045Z,73.10
2019-04-09T01:23:51.566Z,73.20
2019-04-09T01:26:41.041Z,73.30
2019-04-09T01:29:34.290Z,73.20
2019-04-09T01:32:20.728Z,73.20
2019-04-09T01:34:59.349Z,73.20
2019-04-09T01:37:45.294Z,73.30
2019-04-09T01:40:21.576Z,73.20
2019-04-09T01:43:14.165Z,73.20
2019-04-09T01:46:09.042Z,73.40
2019-04-09T01:49:11.637Z,73.40
2019-04-09T01:51:52.015Z,73.50
2019-04-09T01:55:00.266Z,73.60
2019-04-09T01:57:52.700Z,73.60
2019-04-09T02:00:41.318Z,73.70
2019-04-09T02:03:31.459Z,73.70
2019-04-09T02:06:20.907Z,73.70
2019-04-09T02:09:00.841Z,73.70
2019-04-09T02:11:50.313Z,73.70
2019-04-09T02:14:45.892Z,73.80
2019-04-09T02:17:34.856Z,73.90
2019-04-09T02:20:25.311Z,73.90
2019-04-09T02:23:03.596Z,73.70
2019-04-09T02:25:53.386Z,73.60
2019-04-09T02:29:00.969Z,74.60
2019-04-09T02:32:09.595Z,73.90
2019-04-09T02:34:54.587Z,73.10
2019-04-09T02:37:43.507Z,72.60
2019-04-09T02:40:25.955Z,72.70
2019-04-09T02:43:08.187Z,72.60
2019-04-09T02:46:04.051Z,72.60
2019-04-09T02:48:45.897Z,72.60
2019-04-09T02:51:25.084Z,72.60
2019-04-09T02:54:16.404Z,72.60
2019-04-09T02:57:11.928Z,72.40
2019-04-09T02:59:51.038Z,72.70
2019-04-09T03:02:28.865Z,72.70
2019-04-09T03:05:34.356Z,73.70
2019-04-09T03:08:23.345Z,74.00
2019-04-09T03:11:22.032Z,73.90
2019-04-09T03:14:14.524Z,73.90
2019-04-09T03:17:03.428Z,74.00
2019-04-09T03:19:59.277Z,74.30
2019-04-09T03:22:40.522Z,74.00
2019-04-09T03:25:38.947Z,74.00
2019-04-09T03:28:30.944Z,74.00
2019-04-09T03:31:32.775Z,74.20
2019-04-09T03:34:23.565Z,74.20
2019-04-09T03:37:12.551Z,74.30
2019-04-09T03:40:11.232Z,74.20
2019-04-09T03:43:19.036Z,74.20
2019-04-09T03:46:07.398Z,74.20
2019-04-09T03:48:54.357Z,74.20
2019-04-09T03:51:33.315Z,74.20
2019-04-09T03:54:22.773Z,74.20
2019-04-09T03:57:17.877Z,74.20
2019-04-09T04:00:06.186Z,74.40
2019-04-09T04:02:58.847Z,74.40
2019-04-09T04:05:52.690Z,74.30
2019-04-09T04:08:54.012Z,75.20
2019-04-09T04:11:42.425Z,74.30
2019-04-09T04:14:30.428Z,74.30
2019-04-09T04:17:38.330Z,74.30
2019-04-09T04:20:33.804Z,74.30
2019-04-09T04:23:29.313Z,74.20
2019-04-09T04:26:28.662Z,74.30
2019-04-09T04:29:08.850Z,74.30
2019-04-09T04:31:56.836Z,74.50
2019-04-09T04:34:45.575Z,74.50
2019-04-09T04:37:39.609Z,74.50
2019-04-09T04:40:22.269Z,74.30
2019-04-09T04:43:08.587Z,74.40
2019-04-09T04:45:56.738Z,74.50
2019-04-09T04:48:37.957Z,74.50
2019-04-09T04:51:18.617Z,74.30
2019-04-09T04:54:05.824Z,74.40
2019-04-09T04:57:04.221Z,74.50
2019-04-09T04:59:56.834Z,74.50
2019-04-09T05:02:49.642Z,74.50
2019-04-09T05:05:38.682Z,73.50
2019-04-09T05:08:22.168Z,73.40
2019-04-09T05:11:08.305Z,73.40
2019-04-09T05:13:56.941Z,73.60
2019-04-09T05:16:58.714Z,73.50
2019-04-09T05:19:45.363Z,73.40
2019-04-09T05:22:33.624Z,73.30
2019-04-09T05:25:27.212Z,73.40
2019-04-09T05:28:06.669Z,73.40
2019-04-09T05:30:56.628Z,73.40
2019-04-09T05:33:45.114Z,73.40
2019-04-09T05:36:34.222Z,73.40
2019-04-09T05:39:24.007Z,73.40
2019-04-09T05:42:13.272Z,73.30
2019-04-09T05:45:12.204Z,73.20
2019-04-09T05:48:01.186Z,73.10
2019-04-09T05:50:46.923Z,73.20
2019-04-09T05:53:24.230Z,73.20
2019-04-09T05:56:12.260Z,73.20
2019-04-09T05:59:11.461Z,73.30
2019-04-09T06:02:13.520Z,73.10
2019-04-09T06:04:54.571Z,73.20
2019-04-09T06:07:31.164Z,73.50
2019-04-09T06:10:01.914Z,73.50
2019-04-09T06:12:33.094Z,73.40
2019-04-09T06:15:08.617Z,73.50
2019-04-09T06:17:39.064Z,73.40
2019-04-09T06:20:10.724Z,73.30
2019-04-09T06:22:41.386Z,73.20
2019-04-09T06:25:13.579Z,73.10
2019-04-09T06:27:45.363Z,73.30
2019-04-09T06:30:16.234Z,73.20
2019-04-09T06:33:08.007Z,73.00
2019-04-09T06:35:59.971Z,72.90
2019-04-09T06:38:50.258Z,72.80
2019-04-09T06:41:49.715Z,72.80
2019-04-09T06:44:39.374Z,73.00
2019-04-09T06:47:33.201Z,72.80
2019-04-09T06:50:22.987Z,72.50
2019-04-09T06:53:19.432Z,72.50
2019-04-09T06:56:03.083Z,72.30
2019-04-09T06:58:54.518Z,72.10
2019-04-09T07:01:53.219Z,72.10
2019-04-09T07:04:46.159Z,71.90
2019-04-09T07:07:41.427Z,72.80
2019-04-09T07:10:30.020Z,72.10
2019-04-09T07:13:17.675Z,72.20
2019-04-09T07:16:07.484Z,72.10
2019-04-09T07:18:48.764Z,72.30
2019-04-09T07:21:38.261Z,72.20
2019-04-09T07:24:34.958Z,72.10
2019-04-09T07:27:24.541Z,72.10
2019-04-09T07:30:14.461Z,71.90
2019-04-09T07:33:08.779Z,72.00
2019-04-09T07:35:54.816Z,71.90
2019-04-09T07:38:47.024Z,72.50
2019-04-09T07:41:37.888Z,71.60
2019-04-09T07:44:19.534Z,71.30
2019-04-09T07:47:08.284Z,70.90
2019-04-09T07:50:13.359Z,70.90
2019-04-09T07:53:03.136Z,70.80
2019-04-09T07:55:43.926Z,70.90
2019-04-09T07:58:21.619Z,70.90
2019-04-09T08:01:14.823Z,70.80
2019-04-09T08:04:13.104Z,70.60
2019-04-09T08:07:00.782Z,71.00
2019-04-09T08:09:51.530Z,70.20
2019-04-09T08:12:45.770Z,70.00
2019-04-09T08:15:33.015Z,69.80
2019-04-09T08:18:18.872Z,69.60
2019-04-09T08:21:02.664Z,69.60
2019-04-09T08:23:53.325Z,69.40
2019-04-09T08:26:45.514Z,69.30
2019-04-09T08:29:44.180Z,69.10
2019-04-09T08:32:37.144Z,68.90
2019-04-09T08:35:26.177Z,68.70
2019-04-09T08:38:12.283Z,68.70
2019-04-09T08:40:53.716Z,68.60
2019-04-09T08:43:55.698Z,68.40
2019-04-09T08:47:00.147Z,68.40
2019-04-09T08:49:53.011Z,68.00
2019-04-09T08:52:42.113Z,67.40
2019-04-09T08:55:16.386Z,67.50
2019-04-09T08:57:50.905Z,67.50
2019-04-09T09:01:17.574Z,67.50
2019-04-09T09:03:28.017Z,67.20
2019-04-09T09:06:24.378Z,67.20
2019-04-09T09:09:13.928Z,66.90
2019-04-09T09:12:05.234Z,66.80
2019-04-09T09:14:49.968Z,66.50
2019-04-09T09:17:40.148Z,66.20
2019-04-09T09:20:45.226Z,66.00
2019-04-09T09:23:33.344Z,65.90
2019-04-09T09:26:41.791Z,66.00
2019-04-09T09:29:20.528Z,66.70
2019-04-09T09:32:19.470Z,65.60
2019-04-09T09:35:07.710Z,65.40
2019-04-09T09:37:59.179Z,65.30
2019-04-09T09:40:49.915Z,65.00
2019-04-09T09:43:47.858Z,64.90
2019-04-09T09:46:45.038Z,64.70
2019-04-09T09:49:33.482Z,64.40
2019-04-09T09:52:17.515Z,64.60
2019-04-09T09:55:08.125Z,63.80
2019-04-09T09:57:57.170Z,63.40
2019-04-09T10:00:49.039Z,62.80
2019-04-09T10:03:40.181Z,62.60
2019-04-09T10:06:41.846Z,62.80
2019-04-09T10:09:28.830Z,62.50
2019-04-09T10:12:29.033Z,62.50
2019-04-09T10:15:14.930Z,63.10
2019-04-09T10:18:03.618Z,62.00
2019-04-09T10:20:45.497Z,61.70
2019-04-09T10:23:31.733Z,61.60
2019-04-09T10:26:20.914Z,61.30
2019-04-09T10:29:21.707Z,61.10
2019-04-09T10:31:59.368Z,60.90
2019-04-09T10:34:45.708Z,60.70
2019-04-09T10:37:28.664Z,60.60
2019-04-09T10:40:21.938Z,60.30
2019-04-09T10:43:12.569Z,59.90
2019-04-09T10:46:04.625Z,59.70
2019-04-09T10:48:59.634Z,59.40
2019-04-09T10:51:41.399Z,59.30
2019-04-09T10:54:36.464Z,59.10
2019-04-09T10:57:32.020Z,58.90
2019-04-09T11:00:38.131Z,58.50
2019-04-09T11:03:26.635Z,58.40
2019-04-09T11:06:20.788Z,58.30
2019-04-09T11:09:12.647Z,58.20
2019-04-09T11:12:00.858Z,58.00
2019-04-09T11:15:01.832Z,58.00
2019-04-09T11:17:53.622Z,57.70
2019-04-09T11:20:49.186Z,57.60
2019-04-09T11:23:37.473Z,57.40
2019-04-09T11:26:27.742Z,57.30
2019-04-09T11:29:18.679Z,57.20
2019-04-09T11:32:11.914Z,56.90
2019-04-09T11:34:52.121Z,56.70
2019-04-09T11:37:36.968Z,56.40
2019-04-09T11:40:42.284Z,56.30
2019-04-09T11:43:32.069Z,56.20
2019-04-09T11:46:24.275Z,56.00
2019-04-09T11:49:07.113Z,55.60
2019-04-09T11:51:59.520Z,55.70
2019-04-09T11:54:36.014Z,55.40
2019-04-09T11:57:35.212Z,55.20
2019-04-09T12:00:25.993Z,54.90
2019-04-09T12:03:10.648Z,54.70
2019-04-09T12:06:05.013Z,54.40
2019-04-09T12:08:48.694Z,54.10
2019-04-09T12:11:39.688Z,53.70
2019-04-09T12:14:29.670Z,53.50
2019-04-09T12:17:21.265Z,53.40
2019-04-09T12:20:03.257Z,53.20
2019-04-09T12:22:53.144Z,53.20
2019-04-09T12:25:42.689Z,53.00
2019-04-09T12:28:33.060Z,52.80
2019-04-09T12:31:10.255Z,52.70
2019-04-09T12:34:19.187Z,52.60
2019-04-09T12:37:07.184Z,52.10
2019-04-09T12:39:56.069Z,51.90
2019-04-09T12:42:38.962Z,51.60
2019-04-09T12:45:30.965Z,51.30
2019-04-09T12:48:12.590Z,51.00
2019-04-09T12:50:56.502Z,50.60
2019-04-09T12:53:58.076Z,50.10
2019-04-09T12:56:44.969Z,50.50
2019-04-09T12:59:53.693Z,49.90
2019-04-09T13:02:43.350Z,49.40
2019-04-09T13:05:32.799Z,49.20
2019-04-09T13:08:35.879Z,49.00
2019-04-09T13:11:24.495Z,48.80
2019-04-09T13:14:11.011Z,48.70
2019-04-09T13:16:59.589Z,48.30
2019-04-09T13:19:58.375Z,48.10
2019-04-09T13:23:03.899Z,47.90
2019-04-09T13:25:55.167Z,47.50
2019-04-09T13:28:32.533Z,47.30
2019-04-09T13:31:25.348Z,47.00
2019-04-09T13:34:07.123Z,46.90
2019-04-09T13:37:00.023Z,47.00
2019-04-09T13:39:55.677Z,46.90
2019-04-09T13:42:37.990Z,46.80
2019-04-09T13:45:42.303Z,46.50
2019-04-09T13:48:32.374Z,45.80
2019-04-09T13:51:25.584Z,45.20
2019-04-09T13:53:57.318Z,44.60
2019-04-09T13:56:27.848Z,44.30
2019-04-09T13:58:59.557Z,43.80
2019-04-09T14:01:30.541Z,43.50
2019-04-09T14:04:15.487Z,43.40
2019-04-09T14:06:46.607Z,43.40
2019-04-09T14:09:19.345Z,43.40
2019-04-09T14:11:50.468Z,43.30
2019-04-09T14:14:21.089Z,43.20
2019-04-09T14:16:54.908Z,43.00
2019-04-09T14:19:26.147Z,42.50
2019-04-09T14:21:57.129Z,42.20
2019-04-09T14:24:28.287Z,42.00
2019-04-09T14:26:59.489Z,41.90
2019-04-09T14:29:30.200Z,42.00
2019-04-09T14:32:00.874Z,41.90
2019-04-09T14:34:33.243Z,42.00
2019-04-09T14:37:04.092Z,42.10
2019-04-09T14:39:34.611Z,42.00
2019-04-09T14:42:06.165Z,41.80
2019-04-09T14:44:43.924Z,41.70
2019-04-09T14:47:15.900Z,41.80
2019-04-09T14:49:46.451Z,41.80
2019-04-09T14:52:17.012Z,41.40
2019-04-09T14:54:48.086Z,41.30
2019-04-09T14:57:18.734Z,41.10
2019-04-09T14:59:50.599Z,40.80
2019-04-09T15:02:22.199Z,40.50
2019-04-09T15:04:52.903Z,40.30
2019-04-09T15:07:23.581Z,40.30
2019-04-09T15:09:54.611Z,40.20
2019-04-09T15:12:26.535Z,40.20
2019-04-09T15:14:57.516Z,40.40
2019-04-09T15:17:28.210Z,40.50
2019-04-09T15:19:58.916Z,40.70
2019-04-09T15:22:30.915Z,40.90
2019-04-09T15:25:01.684Z,40.90
2019-04-09T15:27:32.179Z,40.80
2019-04-09T15:30:04.111Z,40.50
2019-04-09T15:32:35.358Z,40.30
2019-04-09T15:35:07.816Z,40.00
2019-04-09T15:37:38.579Z,39.80
2019-04-09T15:40:10.732Z,39.60
2019-04-09T15:42:42.078Z,39.40
2019-04-09T15:45:12.819Z,39.20
2019-04-09T15:47:43.502Z,39.10
2019-04-09T15:50:14.330Z,38.90
2019-04-09T15:52:45.015Z,38.90
2019-04-09T15:55:15.512Z,38.70
2019-04-09T15:57:46.136Z,38.60
2019-04-09T16:00:17.073Z,38.50
2019-04-09T16:02:47.727Z,38.50
2019-04-09T16:05:18.267Z,38.60
2019-04-09T16:07:49.119Z,38.70
2019-04-09T16:10:22.177Z,38.80
2019-04-09T16:12:51.914Z,39.00
2019-04-09T16:15:23.115Z,39.20
2019-04-09T16:17:53.955Z,39.20
2019-04-09T16:20:25.825Z,39.30
2019-04-09T16:22:56.587Z,39.40
2019-04-09T16:25:28.779Z,39.60
2019-04-09T16:28:00.537Z,39.80
2019-04-09T16:30:31.573Z,40.00
2019-04-09T16:33:10.558Z,40.20
2019-04-09T16:35:35.466Z,40.40
2019-04-09T16:38:06.514Z,40.70
2019-04-09T16:40:39.232Z,41.00
2019-04-09T16:43:12.478Z,41.20
2019-04-09T16:45:43.927Z,41.50
2019-04-09T16:48:14.925Z,41.60
2019-04-09T16:50:46.014Z,41.70
2019-04-09T16:53:18.940Z,41.90
2019-04-09T16:55:49.694Z,42.20
2019-04-09T16:58:21.290Z,42.30
2019-04-09T17:00:52.821Z,42.50
2019-04-09T17:03:37.667Z,42.80
2019-04-09T17:05:58.954Z,42.80
2019-04-09T17:08:29.673Z,43.10
2019-04-09T17:11:00.237Z,43.30
2019-04-09T17:13:32.986Z,43.50
2019-04-09T17:16:04.382Z,44.20
2019-04-09T17:18:35.628Z,43.80
2019-04-09T17:21:08.528Z,44.00
2019-04-09T17:23:39.257Z,44.10
2019-04-09T17:26:10.013Z,44.20
2019-04-09T17:28:55.429Z,44.30
2019-04-09T17:31:28.003Z,44.50
2019-04-09T17:33:59.381Z,44.80
2019-04-09T17:36:33.831Z,44.90
2019-04-09T17:39:10.748Z,45.10
2019-04-09T17:41:46.067Z,45.30
2019-04-09T17:44:17.097Z,45.50
2019-04-09T17:46:50.329Z,45.60
2019-04-09T17:49:33.291Z,45.80
2019-04-09T17:52:05.896Z,46.00
2019-04-09T17:54:38.544Z,46.00
2019-04-09T17:57:20.377Z,46.30
2019-04-09T17:59:53.184Z,46.40
2019-04-09T18:02:25.247Z,46.50
2019-04-09T18:04:56.509Z,46.60
2019-04-09T18:07:28.546Z,46.80
2019-04-09T18:09:59.271Z,46.90
2019-04-09T18:12:30.517Z,47.00
2019-04-09T18:15:05.341Z,47.10
2019-04-09T18:17:38.158Z,47.30
2019-04-09T18:20:09.748Z,47.40
2019-04-09T18:22:40.737Z,47.60
2019-04-09T18:25:11.789Z,47.70
2019-04-09T18:27:43.593Z,47.90
2019-04-09T18:30:15.996Z,48.20
2019-04-09T18:32:51.831Z,48.30
2019-04-09T18:35:23.893Z,48.40
2019-04-09T18:37:54.905Z,48.70
2019-04-09T18:40:28.261Z,48.80
2019-04-09T18:43:01.161Z,48.90
2019-04-09T18:45:33.197Z,49.00
2019-04-09T18:48:04.748Z,49.20
2019-04-09T18:50:35.596Z,49.40
2019-04-09T18:53:07.371Z,49.60
2019-04-09T18:55:46.885Z,49.60
2019-04-09T18:58:20.807Z,49.80
2019-04-09T19:00:52.708Z,49.80
2019-04-09T19:03:25.294Z,49.90
2019-04-09T19:05:58.851Z,50.10
2019-04-09T19:08:32.429Z,50.20
2019-04-09T19:11:05.530Z,50.40
2019-04-09T19:13:59.622Z,50.40
2019-04-09T19:16:34.788Z,50.50
2019-04-09T19:19:24.896Z,50.60
2019-04-09T19:24:59.825Z,50.70
2019-04-09T19:27:32.427Z,50.70
2019-04-09T19:30:06.992Z,50.80
2019-04-09T19:32:52.447Z,51.00
2019-04-09T19:35:33.275Z,51.10
2019-04-09T19:38:27.971Z,51.20
2019-04-09T19:41:13.763Z,51.20
2019-04-09T19:43:50.517Z,51.30
2019-04-09T19:46:33.074Z,51.40
2019-04-09T19:49:07.791Z,52.00
2019-04-09T19:51:44.370Z,51.50
2019-04-09T19:54:31.548Z,51.60
2019-04-09T19:57:13.493Z,51.80
2019-04-09T19:59:50.812Z,51.90
2019-04-09T20:02:28.667Z,51.90
2019-04-09T20:05:38.610Z,52.00
2019-04-09T20:08:20.579Z,52.10
2019-04-09T20:10:55.319Z,52.20
2019-04-09T20:13:29.820Z,52.30
2019-04-09T20:16:02.875Z,52.40
2019-04-09T20:18:35.208Z,52.60
2019-04-09T20:21:09.014Z,52.70
2019-04-09T20:23:43.479Z,52.80
2019-04-09T20:26:18.023Z,52.90
2019-04-09T20:28:49.091Z,53.00
2019-04-09T20:31:22.835Z,53.10
2019-04-09T20:33:54.040Z,53.30
2019-04-09T20:36:28.099Z,53.40
2019-04-09T20:38:59.760Z,53.50
2019-04-09T20:41:30.417Z,53.60
2019-04-09T20:44:01.385Z,53.60
2019-04-09T20:46:32.113Z,53.80
2019-04-09T20:49:03.888Z,53.80
2019-04-09T20:51:34.837Z,53.80
2019-04-09T20:54:08.765Z,53.80
2019-04-09T20:56:40.813Z,53.90
2019-04-09T20:59:38.414Z,54.00
2019-04-09T21:02:15.893Z,54.00
2019-04-09T21:04:49.449Z,53.90
2019-04-09T21:07:20.185Z,54.00
2019-04-09T21:09:50.850Z,54.00
2019-04-09T21:12:21.407Z,54.20
2019-04-09T21:14:56.100Z,54.30
2019-04-09T21:17:25.380Z,54.50
2019-04-09T21:19:58.051Z,54.80
2019-04-09T21:22:28.620Z,55.20
2019-04-09T21:25:00.110Z,55.60
2019-04-09T21:27:31.800Z,56.10
2019-04-09T21:30:03.680Z,56.60
2019-04-09T21:32:36.233Z,56.90
2019-04-09T21:35:07.389Z,57.10
2019-04-09T21:37:38.075Z,57.50
2019-04-09T21:40:08.984Z,57.70
2019-04-09T21:42:39.659Z,58.00
2019-04-09T21:45:11.520Z,58.40
2019-04-09T21:47:42.741Z,58.80
2019-04-09T21:50:14.731Z,58.90
2019-04-09T21:52:46.438Z,59.10
2019-04-09T21:55:17.222Z,59.40
2019-04-09T21:57:47.843Z,59.60
2019-04-09T22:00:40.463Z,59.90
2019-04-09T22:03:11.314Z,60.00
2019-04-09T22:05:42.716Z,60.00
2019-04-09T22:08:14.029Z,60.20
2019-04-09T22:10:45.541Z,60.50
2019-04-09T22:13:16.490Z,60.60
2019-04-09T22:15:47.320Z,60.90
2019-04-09T22:18:21.022Z,60.90
2019-04-09T22:20:50.183Z,61.20
2019-04-09T22:23:20.688Z,61.20
2019-04-09T22:25:51.390Z,61.30
2019-04-09T22:28:26.027Z,61.50
2019-04-09T22:30:56.657Z,61.70
2019-04-09T22:33:27.172Z,62.40
2019-04-09T22:35:57.833Z,61.70
2019-04-09T22:38:28.527Z,61.80
2019-04-09T22:40:59.298Z,62.10
2019-04-09T22:43:32.941Z,62.10
2019-04-09T22:46:04.135Z,62.20
2019-04-09T22:48:34.736Z,62.50
2019-04-09T22:51:06.350Z,62.50
2019-04-09T22:53:36.975Z,62.90
2019-04-09T22:56:08.984Z,62.80
2019-04-09T22:58:39.554Z,63.10
2019-04-09T23:01:28.799Z,63.10
2019-04-09T23:04:21.951Z,63.20
2019-04-09T23:07:18.681Z,63.80
2019-04-09T23:09:55.289Z,63.50
2019-04-09T23:12:36.391Z,63.70
2019-04-09T23:15:13.962Z,63.90
2019-04-09T23:17:44.377Z,64.00
2019-04-09T23:20:14.857Z,64.40
2019-04-09T23:22:45.371Z,64.90
2019-04-09T23:25:16.792Z,65.00
2019-04-09T23:27:48.463Z,65.30
2019-04-09T23:30:19.106Z,65.40
2019-04-09T23:32:50.111Z,65.50
2019-04-09T23:35:21.038Z,65.70
2019-04-09T23:37:53.069Z,65.70
2019-04-09T23:40:23.944Z,65.80
2019-04-09T23:42:55.171Z,65.70
2019-04-09T23:45:26.271Z,65.90
2019-04-09T23:47:57.700Z,66.00
2019-04-09T23:50:28.316Z,66.10
2019-04-09T23:52:58.961Z,65.90
2019-04-09T23:55:29.470Z,66.00
2019-04-09T23:58:00.688Z,67.20
